Time;durP1;ratioP1;P1;durP2;ratioP2;P2;SDS_P1;SDS_P2;PMS_P1;PMS_P2;Temp;Humidity;BMP_temperature;BMP_pressure;BME280_temperature;BME280_humidity;BME280_pressure;Samples;Min_cycle;Max_cycle;Signal;HPM_P1;HPM_P2
2022/01/29 00:00:24;;;;;;;;;87.50;73.75;;;;;;;;5091288;28;11621;-71
2022/01/29 00:02:49;;;;;;;;;76.00;61.25;;;;;;;;5098764;27;8828;-71
2022/01/29 00:05:14;;;;;;;;;80.00;64.00;;;;;;;;5095507;28;8810;-71
2022/01/29 00:07:42;;;;;;;;;80.50;64.75;;;;;;;;5095602;28;8842;-71
2022/01/29 00:10:08;;;;;;;;;84.75;68.25;;;;;;;;5095390;28;8821;-71
2022/01/29 00:12:33;;;;;;;;;79.25;64.50;;;;;;;;5095504;28;8774;-71
2022/01/29 00:14:59;;;;;;;;;77.00;62.67;;;;;;;;5093771;28;8833;-71
2022/01/29 00:17:25;;;;;;;;;91.00;81.75;;;;;;;;5095424;28;8809;-71
2022/01/29 00:19:50;;;;;;;;;84.50;70.50;;;;;;;;5094768;28;8825;-71
2022/01/29 00:22:15;;;;;;;;;72.00;59.00;;;;;;;;5094865;28;11596;-71
2022/01/29 00:24:41;;;;;;;;;83.33;68.00;;;;;;;;5095114;28;8833;-71
2022/01/29 00:27:09;;;;;;;;;82.75;68.50;;;;;;;;5094974;28;8934;-71
2022/01/29 00:29:38;;;;;;;;;80.20;64.20;;;;;;;;5093327;28;8813;-71
2022/01/29 00:32:04;;;;;;;;;77.20;61.20;;;;;;;;5094623;28;8801;-71
2022/01/29 00:34:29;;;;;;;;;76.60;63.00;;;;;;;;5094479;28;8841;-71
2022/01/29 00:36:54;;;;;;;;;77.00;62.75;;;;;;;;5095064;28;8849;-71
2022/01/29 00:39:20;;;;;;;;;92.00;80.50;;;;;;;;5095166;28;8928;-71
2022/01/29 00:41:45;;;;;;;;;93.67;85.00;;;;;;;;5095543;28;8802;-71
2022/01/29 00:44:10;;;;;;;;;70.00;58.50;;;;;;;;5093954;28;8856;-71
2022/01/29 00:46:41;;;;;;;;;71.00;59.00;;;;;;;;5095335;28;8864;-71
2022/01/29 00:49:06;;;;;;;;;71.80;58.40;;;;;;;;5093633;28;8786;-71
2022/01/29 00:51:31;;;;;;;;;78.75;63.25;;;;;;;;5094731;28;8883;-71
2022/01/29 00:53:57;;;;;;;;;75.00;61.33;;;;;;;;5094120;28;9585;-71
2022/01/29 00:56:22;;;;;;;;;79.25;64.50;;;;;;;;5095081;28;8850;-71
2022/01/29 00:58:47;;;;;;;;;83.67;70.33;;;;;;;;5095153;28;8809;-71
2022/01/29 01:01:12;;;;;;;;;82.00;66.67;;;;;;;;5095177;28;8857;-71
2022/01/29 01:03:38;;;;;;;;;83.75;68.75;;;;;;;;5093472;28;8919;-71
2022/01/29 01:06:03;;;;;;;;;80.67;66.00;;;;;;;;5094617;28;8825;-71
2022/01/29 01:08:28;;;;;;;;;88.33;73.67;;;;;;;;5093342;28;8834;-71
2022/01/29 01:10:54;;;;;;;;;91.67;76.67;;;;;;;;5094661;28;8817;-71
2022/01/29 01:13:20;;;;;;;;;94.50;86.75;;;;;;;;5094533;28;8850;-71
2022/01/29 01:15:45;;;;;;;;;97.50;95.00;;;;;;;;5094885;28;8836;-71
2022/01/29 01:18:10;;;;;;;;;108.00;106.33;;;;;;;;5094643;28;8830;-71
2022/01/29 01:20:35;;;;;;;;;124.67;119.00;;;;;;;;5087829;28;9264;-71
2022/01/29 01:23:01;;;;;;;;;129.75;127.00;;;;;;;;5094468;28;8933;-71
2022/01/29 01:25:26;;;;;;;;;125.00;125.00;;;;;;;;5094053;28;8802;-71
2022/01/29 01:27:52;;;;;;;;;128.80;127.80;;;;;;;;5090039;28;8924;-71
2022/01/29 01:30:17;;;;;;;;;108.20;105.80;;;;;;;;5092889;28;8746;-71
2022/01/29 01:32:43;;;;;;;;;119.75;118.00;;;;;;;;5094127;28;9553;-71
2022/01/29 01:35:17;;;;;;;;;127.25;124.00;;;;;;;;5093816;28;8813;-71
2022/01/29 01:37:51;;;;;;;;;154.67;153.83;;;;;;;;5093753;28;8801;-71
2022/01/29 01:40:17;;;;;;;;;139.20;139.20;;;;;;;;5094063;28;9009;-71
2022/01/29 01:42:42;;;;;;;;;146.00;144.80;;;;;;;;5090309;28;8906;-71
2022/01/29 01:45:08;;;;;;;;;152.00;148.80;;;;;;;;5090487;28;8836;-71
2022/01/29 01:47:33;;;;;;;;;153.20;152.00;;;;;;;;5093783;28;8797;-71
2022/01/29 01:49:59;;;;;;;;;114.75;112.25;;;;;;;;5093793;28;8826;-71
2022/01/29 01:52:24;;;;;;;;;108.25;106.75;;;;;;;;5093724;28;9568;-71
2022/01/29 01:54:49;;;;;;;;;104.25;103.00;;;;;;;;5093923;28;8809;-71
2022/01/29 01:57:17;;;;;;;;;113.00;111.00;;;;;;;;5093762;28;8818;-71
2022/01/29 01:59:42;;;;;;;;;95.20;86.20;;;;;;;;5094213;28;8817;-71
2022/01/29 02:02:08;;;;;;;;;120.00;119.00;;;;;;;;5093844;28;8822;-71
2022/01/29 02:04:33;;;;;;;;;98.50;94.00;;;;;;;;5094884;28;8806;-71
2022/01/29 02:06:59;;;;;;;;;113.75;111.00;;;;;;;;5096967;28;8889;-71
2022/01/29 02:09:25;;;;;;;;;97.80;93.20;;;;;;;;5097130;28;8965;-71
2022/01/29 02:11:52;;;;;;;;;113.40;113.00;;;;;;;;5097259;28;8817;-71
2022/01/29 02:14:23;;;;;;;;;100.60;96.60;;;;;;;;5097321;28;9948;-71
2022/01/29 02:16:49;;;;;;;;;101.00;98.60;;;;;;;;5097379;28;8778;-71
2022/01/29 02:19:14;;;;;;;;;99.50;96.50;;;;;;;;5095598;28;8816;-71
2022/01/29 02:21:39;;;;;;;;;100.00;95.00;;;;;;;;5099369;28;8917;-71
2022/01/29 02:24:05;;;;;;;;;98.00;93.50;;;;;;;;5096999;28;8794;-71
2022/01/29 02:26:30;;;;;;;;;106.00;104.33;;;;;;;;5092941;28;9532;-71
2022/01/29 02:28:56;;;;;;;;;113.20;108.20;;;;;;;;5095929;28;11647;-71
2022/01/29 02:31:21;;;;;;;;;100.60;95.40;;;;;;;;5097226;28;8805;-71
2022/01/29 02:33:46;;;;;;;;;97.00;91.50;;;;;;;;5097397;28;8813;-71
2022/01/29 02:36:12;;;;;;;;;98.80;92.40;;;;;;;;5096614;28;8907;-71
2022/01/29 02:38:37;;;;;;;;;99.00;93.25;;;;;;;;5097069;28;9562;-71
2022/01/29 02:41:05;;;;;;;;;100.75;95.75;;;;;;;;5096655;28;11562;-71
2022/01/29 02:43:35;;;;;;;;;99.50;94.50;;;;;;;;5093352;28;11564;-71
2022/01/29 02:46:06;;;;;;;;;87.60;70.60;;;;;;;;5093158;28;8837;-71
2022/01/29 02:48:32;;;;;;;;;98.60;91.40;;;;;;;;5096975;28;8832;-71
2022/01/29 02:50:57;;;;;;;;;99.67;94.33;;;;;;;;5096428;28;8790;-71
2022/01/29 02:53:22;;;;;;;;;93.75;84.25;;;;;;;;5096892;28;8798;-71
2022/01/29 02:55:48;;;;;;;;;91.67;81.67;;;;;;;;5095217;28;8871;-71
2022/01/29 02:58:13;;;;;;;;;103.33;102.33;;;;;;;;5096860;28;8849;-71
2022/01/29 03:00:39;;;;;;;;;109.00;105.75;;;;;;;;5096862;28;9498;-71
2022/01/29 03:03:04;;;;;;;;;108.00;106.67;;;;;;;;5095245;28;8960;-71
2022/01/29 03:05:29;;;;;;;;;102.80;101.60;;;;;;;;5096574;28;8940;-71
2022/01/29 03:07:55;;;;;;;;;94.60;87.40;;;;;;;;5096642;28;8825;-71
2022/01/29 03:10:22;;;;;;;;;99.00;91.40;;;;;;;;5096120;28;8805;-71
2022/01/29 03:12:47;;;;;;;;;101.00;97.00;;;;;;;;5094980;28;9804;-71
2022/01/29 03:15:12;;;;;;;;;112.20;111.00;;;;;;;;5096433;28;8822;-71
2022/01/29 03:17:38;;;;;;;;;116.60;109.20;;;;;;;;5095660;28;8818;-71
2022/01/29 03:20:04;;;;;;;;;105.00;104.40;;;;;;;;5094519;28;8821;-71
2022/01/29 03:22:29;;;;;;;;;99.20;92.60;;;;;;;;5096305;28;8809;-71
2022/01/29 03:24:55;;;;;;;;;118.00;115.50;;;;;;;;5096340;28;8822;-71
2022/01/29 03:27:20;;;;;;;;;99.25;94.25;;;;;;;;5092392;28;9638;-71
2022/01/29 03:29:45;;;;;;;;;107.80;107.00;;;;;;;;5096159;28;8915;-71
2022/01/29 03:32:11;;;;;;;;;103.75;100.25;;;;;;;;5096244;28;8817;-71
2022/01/29 03:34:36;;;;;;;;;107.60;106.00;;;;;;;;5095928;28;8805;-71
2022/01/29 03:37:03;;;;;;;;;108.50;108.25;;;;;;;;5095807;28;8802;-71
2022/01/29 03:39:29;;;;;;;;;103.00;100.60;;;;;;;;5095792;28;8810;-71
2022/01/29 03:41:59;;;;;;;;;96.60;87.60;;;;;;;;5094763;28;9820;-71
2022/01/29 03:44:24;;;;;;;;;100.80;98.40;;;;;;;;5091357;28;8788;-71
2022/01/29 03:46:49;;;;;;;;;91.00;76.67;;;;;;;;5096085;28;8848;-71
2022/01/29 03:49:15;;;;;;;;;96.75;89.00;;;;;;;;5095907;28;11000;-71
2022/01/29 03:51:40;;;;;;;;;95.25;86.25;;;;;;;;5095409;28;8861;-71
2022/01/29 03:54:05;;;;;;;;;96.00;87.67;;;;;;;;5095781;28;8810;-71
2022/01/29 03:56:31;;;;;;;;;96.00;87.00;;;;;;;;5094555;28;8854;-71
2022/01/29 03:58:56;;;;;;;;;91.00;79.75;;;;;;;;5095830;28;8822;-71
2022/01/29 04:01:21;;;;;;;;;96.33;87.00;;;;;;;;5095886;28;8926;-71
2022/01/29 04:03:47;;;;;;;;;90.00;76.75;;;;;;;;5095756;28;10908;-71
2022/01/29 04:06:12;;;;;;;;;96.80;89.20;;;;;;;;5095479;28;9589;-71
2022/01/29 04:08:42;;;;;;;;;94.20;84.60;;;;;;;;5095189;28;8956;-71
2022/01/29 04:11:08;;;;;;;;;99.20;96.20;;;;;;;;5094145;28;8829;-71
2022/01/29 04:13:33;;;;;;;;;88.80;78.40;;;;;;;;5094063;28;8825;-71
2022/01/29 04:15:58;;;;;;;;;96.25;91.75;;;;;;;;5095472;28;8832;-71
2022/01/29 04:18:24;;;;;;;;;97.50;93.50;;;;;;;;5095511;28;8833;-71
2022/01/29 04:20:49;;;;;;;;;116.25;114.25;;;;;;;;5094926;28;8853;-71
2022/01/29 04:23:14;;;;;;;;;95.25;87.00;;;;;;;;5096753;28;8833;-71
2022/01/29 04:25:40;;;;;;;;;120.20;117.80;;;;;;;;5095105;28;8877;-71
2022/01/29 04:28:07;;;;;;;;;120.25;118.00;;;;;;;;5088465;28;8936;-71
2022/01/29 04:30:33;;;;;;;;;114.20;110.40;;;;;;;;5093938;28;8857;-71
2022/01/29 04:33:15;;;;;;;;;116.25;112.00;;;;;;;;5095235;28;8863;-71
2022/01/29 04:35:40;;;;;;;;;103.20;101.40;;;;;;;;5094722;28;8906;-71
2022/01/29 04:38:05;;;;;;;;;123.67;118.67;;;;;;;;5095191;28;8817;-71
2022/01/29 04:40:31;;;;;;;;;107.75;107.25;;;;;;;;5094920;28;8952;-71
2022/01/29 04:42:56;;;;;;;;;112.25;112.25;;;;;;;;5091347;28;9542;-71
2022/01/29 04:45:22;;;;;;;;;110.80;108.40;;;;;;;;5091168;28;8926;-71
2022/01/29 04:47:47;;;;;;;;;110.00;107.33;;;;;;;;5095235;28;8834;-71
2022/01/29 04:50:12;;;;;;;;;101.20;99.20;;;;;;;;5093090;28;10003;-71
2022/01/29 04:52:38;;;;;;;;;99.00;96.40;;;;;;;;5093709;28;8844;-71
2022/01/29 04:55:03;;;;;;;;;100.00;93.60;;;;;;;;5094827;28;8834;-71
2022/01/29 04:57:29;;;;;;;;;103.40;100.40;;;;;;;;5095057;28;8852;-71
2022/01/29 04:59:54;;;;;;;;;96.33;88.00;;;;;;;;5094974;28;8826;-71
2022/01/29 05:02:19;;;;;;;;;94.75;85.00;;;;;;;;5095108;28;8825;-71
2022/01/29 05:04:44;;;;;;;;;98.25;93.25;;;;;;;;5094987;28;8836;-71
2022/01/29 05:07:10;;;;;;;;;110.40;108.80;;;;;;;;5094331;28;10867;-71
2022/01/29 05:09:35;;;;;;;;;100.75;99.25;;;;;;;;5094503;28;9573;-71
2022/01/29 05:12:02;;;;;;;;;115.60;112.00;;;;;;;;5094826;28;8798;-71
2022/01/29 05:26:50;;;;;;;;;97.33;89.50;;;;;;;;5088287;28;8778;-71
2022/01/29 05:27:49;;;;;;;;;119.50;117.75;;;;;;;;5089798;28;8810;-71
2022/01/29 05:30:14;;;;;;;;;133.00;132.00;;;;;;;;5094533;28;8868;-71
2022/01/29 05:32:39;;;;;;;;;122.25;122.25;;;;;;;;5093200;28;8849;-71
2022/01/29 05:35:05;;;;;;;;;106.25;104.25;;;;;;;;5092661;28;8887;-71
2022/01/29 05:37:30;;;;;;;;;118.00;117.50;;;;;;;;5092844;28;8864;-71
2022/01/29 05:39:55;;;;;;;;;122.50;121.00;;;;;;;;5094164;28;10371;-71
2022/01/29 05:42:20;;;;;;;;;110.33;108.67;;;;;;;;5095492;28;11660;-71
2022/01/29 05:44:46;;;;;;;;;110.50;109.75;;;;;;;;5092060;28;8903;-71
2022/01/29 05:47:11;;;;;;;;;127.50;126.75;;;;;;;;5097832;28;8825;-71
2022/01/29 05:49:36;;;;;;;;;113.75;112.75;;;;;;;;5097551;28;8992;-71
2022/01/29 05:52:02;;;;;;;;;123.67;120.33;;;;;;;;5097459;28;8798;-71
2022/01/29 05:54:27;;;;;;;;;115.00;111.75;;;;;;;;5097656;28;8809;-71
2022/01/29 05:56:52;;;;;;;;;109.25;107.75;;;;;;;;5096204;28;11648;-71
2022/01/29 05:59:18;;;;;;;;;114.75;110.25;;;;;;;;5097703;28;8905;-71
2022/01/29 06:01:43;;;;;;;;;121.00;118.50;;;;;;;;5097701;28;8818;-71
2022/01/29 06:04:08;;;;;;;;;112.25;108.75;;;;;;;;5096302;28;8830;-71
2022/01/29 06:06:34;;;;;;;;;108.00;103.50;;;;;;;;5095900;28;8917;-71
2022/01/29 06:09:04;;;;;;;;;99.40;97.60;;;;;;;;5097155;28;8957;-71
2022/01/29 06:11:29;;;;;;;;;115.67;114.67;;;;;;;;5097669;28;8886;-71
2022/01/29 06:13:54;;;;;;;;;121.25;118.25;;;;;;;;5097359;28;8813;-71
2022/01/29 06:16:20;;;;;;;;;120.50;118.50;;;;;;;;5097215;28;9572;-71
2022/01/29 06:18:45;;;;;;;;;115.75;114.00;;;;;;;;5097356;28;8849;-71
2022/01/29 06:21:13;;;;;;;;;102.00;101.50;;;;;;;;5096810;28;8939;-71
2022/01/29 06:23:39;;;;;;;;;98.83;94.50;;;;;;;;5096600;28;8848;-71
2022/01/29 06:26:09;;;;;;;;;100.40;98.60;;;;;;;;5095495;28;8794;-71
2022/01/29 06:28:35;;;;;;;;;111.20;110.80;;;;;;;;5095597;28;8821;-71
2022/01/29 06:31:00;;;;;;;;;115.00;113.20;;;;;;;;5097230;28;9568;-71
2022/01/29 06:33:26;;;;;;;;;115.40;113.20;;;;;;;;5097182;28;8890;-71
2022/01/29 06:35:51;;;;;;;;;95.80;91.20;;;;;;;;5096826;28;8855;-71
2022/01/29 06:38:17;;;;;;;;;101.50;100.50;;;;;;;;5096911;28;8895;-71
2022/01/29 06:40:43;;;;;;;;;94.25;84.75;;;;;;;;5096789;28;8912;-71
2022/01/29 06:43:08;;;;;;;;;87.50;74.50;;;;;;;;5091745;28;8824;-71
2022/01/29 06:45:35;;;;;;;;;96.60;90.40;;;;;;;;5093233;28;8810;-71
2022/01/29 06:48:00;;;;;;;;;82.60;68.40;;;;;;;;5095565;28;8802;-71
2022/01/29 06:50:27;;;;;;;;;88.80;79.00;;;;;;;;5094631;28;8781;-71
2022/01/29 06:52:52;;;;;;;;;90.33;78.33;;;;;;;;5096046;28;10317;-71
2022/01/29 06:55:18;;;;;;;;;100.00;96.25;;;;;;;;5095279;28;8883;-71
2022/01/29 06:57:43;;;;;;;;;98.60;95.20;;;;;;;;5096738;28;9558;-71
2022/01/29 07:00:09;;;;;;;;;90.50;78.75;;;;;;;;5095418;28;8854;-71
2022/01/29 07:02:35;;;;;;;;;93.50;87.00;;;;;;;;5096727;28;8834;-71
2022/01/29 07:05:00;;;;;;;;;88.25;77.25;;;;;;;;5096325;28;8844;-71
2022/01/29 07:07:26;;;;;;;;;90.60;79.40;;;;;;;;5096561;28;8798;-71
2022/01/29 07:09:51;;;;;;;;;87.40;74.60;;;;;;;;5096417;28;8922;-71
2022/01/29 07:12:17;;;;;;;;;85.50;71.75;;;;;;;;5095474;28;8810;-71
2022/01/29 07:14:42;;;;;;;;;101.80;100.20;;;;;;;;5096287;28;8928;-71
2022/01/29 07:17:11;;;;;;;;;93.00;84.80;;;;;;;;5096565;28;8794;-71
2022/01/29 07:19:37;;;;;;;;;87.20;74.20;;;;;;;;5094908;28;8793;-71
2022/01/29 07:22:03;;;;;;;;;96.60;92.00;;;;;;;;5091600;27;8859;-71
2022/01/29 07:24:29;;;;;;;;;96.80;92.00;;;;;;;;5094333;28;8818;-71
2022/01/29 07:26:54;;;;;;;;;95.75;89.75;;;;;;;;5096059;28;8794;-71
2022/01/29 07:29:20;;;;;;;;;94.25;88.25;;;;;;;;5096375;28;8930;-71
2022/01/29 07:31:45;;;;;;;;;90.20;78.20;;;;;;;;5096247;28;8794;-71
2022/01/29 07:34:10;;;;;;;;;84.00;71.40;;;;;;;;5096376;28;8834;-71
2022/01/29 07:36:36;;;;;;;;;83.67;69.33;;;;;;;;5094263;28;8894;-71
2022/01/29 07:39:01;;;;;;;;;73.60;59.40;;;;;;;;5081399;28;9036;-71
2022/01/29 07:41:26;;;;;;;;;95.20;88.60;;;;;;;;5094588;28;9534;-71
2022/01/29 07:43:51;;;;;;;;;107.33;105.67;;;;;;;;5091833;28;8801;-71
2022/01/29 07:46:17;;;;;;;;;113.25;112.50;;;;;;;;5080836;28;8824;-71
2022/01/29 07:48:42;;;;;;;;;130.60;127.80;;;;;;;;5094713;28;8830;-71
2022/01/29 07:51:07;;;;;;;;;136.25;134.75;;;;;;;;5095174;28;8809;-71
2022/01/29 07:53:33;;;;;;;;;145.25;141.25;;;;;;;;5095459;28;8857;-70
2022/01/29 07:55:58;;;;;;;;;150.75;149.00;;;;;;;;5096055;28;8824;-70
2022/01/29 07:58:23;;;;;;;;;176.40;176.00;;;;;;;;5076879;28;8894;-70
2022/01/29 08:00:49;;;;;;;;;181.25;178.75;;;;;;;;5095738;28;9526;-70
2022/01/29 08:03:17;;;;;;;;;197.20;195.20;;;;;;;;5093248;28;8829;-69
2022/01/29 08:05:42;;;;;;;;;187.40;184.40;;;;;;;;5093823;28;8820;-70
2022/01/29 08:08:07;;;;;;;;;192.60;189.80;;;;;;;;5095303;28;8822;-71
2022/01/29 08:10:33;;;;;;;;;193.60;189.20;;;;;;;;5094677;28;8817;-71
2022/01/29 08:12:58;;;;;;;;;195.00;193.20;;;;;;;;5094935;28;8875;-71
2022/01/29 08:15:23;;;;;;;;;190.75;190.00;;;;;;;;5093336;28;8825;-71
2022/01/29 08:17:49;;;;;;;;;215.50;213.33;;;;;;;;5094584;28;8860;-71
2022/01/29 08:20:14;;;;;;;;;207.80;205.60;;;;;;;;5087246;28;8932;-71
2022/01/29 08:22:39;;;;;;;;;193.40;192.60;;;;;;;;5094830;28;8849;-71
2022/01/29 08:25:05;;;;;;;;;236.00;234.80;;;;;;;;5094661;28;9589;-71
2022/01/29 08:27:30;;;;;;;;;240.40;237.80;;;;;;;;5084408;28;8975;-71
2022/01/29 08:29:56;;;;;;;;;213.20;211.40;;;;;;;;5092196;28;8841;-71
2022/01/29 08:32:21;;;;;;;;;209.80;208.00;;;;;;;;5095067;28;8810;-71
2022/01/29 08:34:47;;;;;;;;;180.40;177.00;;;;;;;;5092543;28;8852;-71
2022/01/29 08:37:12;;;;;;;;;165.25;162.25;;;;;;;;5091605;28;8836;-71
2022/01/29 08:39:38;;;;;;;;;158.50;156.75;;;;;;;;5093739;28;11583;-71
2022/01/29 08:42:04;;;;;;;;;163.00;160.83;;;;;;;;5095139;28;8802;-71
2022/01/29 08:44:29;;;;;;;;;165.00;161.60;;;;;;;;5091548;28;8860;-71
2022/01/29 08:46:54;;;;;;;;;152.50;151.50;;;;;;;;5094755;28;8923;-72
2022/01/29 08:49:20;;;;;;;;;158.00;157.60;;;;;;;;5092936;28;9601;-71
2022/01/29 08:51:46;;;;;;;;;176.33;175.33;;;;;;;;5092726;28;8904;-71
2022/01/29 08:54:11;;;;;;;;;170.00;168.80;;;;;;;;5094416;28;8907;-71
2022/01/29 08:56:36;;;;;;;;;159.40;159.40;;;;;;;;5094532;28;9557;-71
2022/01/29 08:59:02;;;;;;;;;191.40;190.40;;;;;;;;5094493;28;8898;-71
2022/01/29 09:01:27;;;;;;;;;161.00;160.25;;;;;;;;5094789;28;8810;-71
2022/01/29 09:03:53;;;;;;;;;195.17;193.83;;;;;;;;5094057;28;8848;-71
2022/01/29 09:06:18;;;;;;;;;223.60;223.60;;;;;;;;5092314;28;9558;-71
2022/01/29 09:08:48;;;;;;;;;214.17;213.33;;;;;;;;5091687;28;8837;-71
2022/01/29 09:11:14;;;;;;;;;224.29;224.29;;;;;;;;5092992;28;8846;-71
2022/01/29 09:13:39;;;;;;;;;244.67;242.67;;;;;;;;5093692;28;8814;-71
2022/01/29 09:16:04;;;;;;;;;270.25;270.25;;;;;;;;5088302;28;8818;-72
2022/01/29 09:18:30;;;;;;;;;285.00;282.83;;;;;;;;5094048;28;9573;-71
2022/01/29 09:20:55;;;;;;;;;264.20;264.20;;;;;;;;5090677;28;8857;-72
2022/01/29 09:23:21;;;;;;;;;298.33;296.17;;;;;;;;5092278;28;8798;-72
2022/01/29 09:25:47;;;;;;;;;310.71;309.86;;;;;;;;5091286;28;8802;-72
2022/01/29 09:28:13;;;;;;;;;327.40;326.40;;;;;;;;5090806;28;8813;-72
2022/01/29 09:30:39;;;;;;;;;331.67;329.67;;;;;;;;5091066;28;8950;-72
2022/01/29 09:33:04;;;;;;;;;282.00;282.00;;;;;;;;5093463;28;8809;-73
2022/01/29 09:35:30;;;;;;;;;281.60;281.60;;;;;;;;5093691;28;8805;-73
2022/01/29 09:37:55;;;;;;;;;274.40;274.40;;;;;;;;5092278;28;8935;-72
2022/01/29 09:40:21;;;;;;;;;275.33;274.83;;;;;;;;5093239;28;8831;-71
2022/01/29 09:42:49;;;;;;;;;268.00;267.20;;;;;;;;5093356;28;8842;-71
2022/01/29 09:45:15;;;;;;;;;301.67;301.67;;;;;;;;5089493;28;8797;-71
2022/01/29 09:47:43;;;;;;;;;234.33;233.83;;;;;;;;5093563;28;10845;-71
2022/01/29 09:50:09;;;;;;;;;215.00;214.00;;;;;;;;5090241;28;8912;-71
2022/01/29 09:52:35;;;;;;;;;189.83;189.83;;;;;;;;5093995;28;8808;-70
2022/01/29 09:55:00;;;;;;;;;167.50;166.25;;;;;;;;5093244;28;8798;-70
2022/01/29 09:57:26;;;;;;;;;175.00;175.00;;;;;;;;5094176;28;8928;-70
2022/01/29 09:59:51;;;;;;;;;158.40;157.60;;;;;;;;5093778;28;10268;-71
2022/01/29 10:02:18;;;;;;;;;130.75;129.00;;;;;;;;5080908;28;8816;-71
2022/01/29 10:04:47;;;;;;;;;124.60;122.00;;;;;;;;5094001;28;11646;-70
2022/01/29 10:07:13;;;;;;;;;151.50;151.50;;;;;;;;5093564;28;8831;-70
2022/01/29 10:09:39;;;;;;;;;149.75;148.75;;;;;;;;5093791;28;8793;-70
2022/01/29 10:12:23;;;;;;;;;122.25;121.75;;;;;;;;5094277;28;8846;-71
2022/01/29 10:14:51;;;;;;;;;123.60;120.20;;;;;;;;5093922;28;8801;-70
2022/01/29 10:17:35;;;;;;;;;144.00;144.00;;;;;;;;5093270;28;8816;-70
2022/01/29 10:20:07;;;;;;;;;137.80;137.80;;;;;;;;5084526;28;11545;-70
2022/01/29 10:22:34;;;;;;;;;136.80;136.60;;;;;;;;5093869;28;8734;-70
2022/01/29 10:24:59;;;;;;;;;120.50;120.00;;;;;;;;5093690;28;8762;-70
2022/01/29 10:27:24;;;;;;;;;134.75;133.50;;;;;;;;5096139;28;9585;-70
2022/01/29 10:29:57;;;;;;;;;130.50;130.50;;;;;;;;5097209;28;8933;-70
2022/01/29 10:32:26;;;;;;;;;130.00;130.00;;;;;;;;5097369;28;8910;-70
2022/01/29 10:34:55;;;;;;;;;139.80;139.40;;;;;;;;5096900;28;8860;-70
2022/01/29 10:37:24;;;;;;;;;120.50;120.50;;;;;;;;5097398;28;8726;-70
2022/01/29 10:39:49;;;;;;;;;127.83;125.83;;;;;;;;5096676;28;10561;-70
2022/01/29 10:42:23;;;;;;;;;121.00;120.20;;;;;;;;5095929;28;8794;-70
2022/01/29 10:44:50;;;;;;;;;134.60;133.60;;;;;;;;5095644;28;8955;-70
2022/01/29 10:47:15;;;;;;;;;130.40;130.40;;;;;;;;5097391;28;8762;-70
2022/01/29 10:49:50;;;;;;;;;121.60;121.60;;;;;;;;5095890;28;8904;-70
2022/01/29 10:52:16;;;;;;;;;144.00;144.00;;;;;;;;5086865;28;8778;-70
2022/01/29 10:54:43;;;;;;;;;125.50;123.75;;;;;;;;5095173;28;8883;-70
2022/01/29 10:57:13;;;;;;;;;123.60;123.60;;;;;;;;5096899;28;11615;-70
2022/01/29 10:59:49;;;;;;;;;138.60;138.60;;;;;;;;5096673;28;9300;-71
2022/01/29 11:02:15;;;;;;;;;126.00;126.00;;;;;;;;5095493;28;9663;-71
2022/01/29 11:04:41;;;;;;;;;121.00;121.00;;;;;;;;5096683;28;8832;-71
2022/01/29 11:07:13;;;;;;;;;126.40;125.60;;;;;;;;5096718;28;11534;-71
2022/01/29 11:09:40;;;;;;;;;123.40;123.40;;;;;;;;5096274;28;11578;-70
2022/01/29 11:12:06;;;;;;;;;128.60;128.60;;;;;;;;5095583;28;8801;-73
2022/01/29 11:14:32;;;;;;;;;128.40;128.20;;;;;;;;5094849;28;8890;-71
2022/01/29 11:16:58;;;;;;;;;125.80;125.00;;;;;;;;5094987;28;8897;-73
2022/01/29 11:19:24;;;;;;;;;124.40;124.20;;;;;;;;5092190;28;8820;-74
2022/01/29 11:21:52;;;;;;;;;121.80;121.20;;;;;;;;5091224;28;8967;-73
2022/01/29 11:24:19;;;;;;;;;125.50;125.00;;;;;;;;5083010;28;8798;-75
2022/01/29 11:26:45;;;;;;;;;122.40;122.40;;;;;;;;5096553;28;8778;-74
2022/01/29 11:29:27;;;;;;;;;127.20;127.20;;;;;;;;5084466;28;8801;-74
2022/01/29 11:32:13;;;;;;;;;127.00;125.40;;;;;;;;5095832;28;8800;-72
2022/01/29 11:34:57;;;;;;;;;119.40;118.80;;;;;;;;5085575;28;8907;-72
2022/01/29 11:37:36;;;;;;;;;121.17;121.17;;;;;;;;5084763;28;8798;-72
2022/01/29 11:40:10;;;;;;;;;119.80;118.60;;;;;;;;5094607;28;8789;-72
2022/01/29 11:42:36;;;;;;;;;129.83;129.33;;;;;;;;5093516;28;8934;-72
2022/01/29 11:45:21;;;;;;;;;113.25;112.75;;;;;;;;5091954;28;8813;-74
2022/01/29 11:47:47;;;;;;;;;120.50;119.50;;;;;;;;5092120;28;8782;-72
2022/01/29 11:50:18;;;;;;;;;121.67;121.67;;;;;;;;5095490;28;8817;-73
2022/01/29 11:52:54;;;;;;;;;127.60;127.20;;;;;;;;5095734;28;8990;-73
2022/01/29 11:55:55;;;;;;;;;122.20;122.20;;;;;;;;5095876;28;9786;-73
2022/01/29 11:58:27;;;;;;;;;134.60;133.20;;;;;;;;5088284;28;8833;-73
2022/01/29 12:00:52;;;;;;;;;127.40;126.80;;;;;;;;5091769;28;8786;-71
2022/01/29 12:03:37;;;;;;;;;138.50;136.25;;;;;;;;5094298;28;8840;-71
2022/01/29 12:06:32;;;;;;;;;132.00;132.00;;;;;;;;5095191;28;11570;-71
2022/01/29 12:08:59;;;;;;;;;163.25;163.25;;;;;;;;5094404;28;8805;-72
2022/01/29 12:11:25;;;;;;;;;180.00;179.40;;;;;;;;5094370;28;9087;-73
2022/01/29 12:14:09;;;;;;;;;180.80;180.80;;;;;;;;5094322;28;8844;-72
2022/01/29 12:17:05;;;;;;;;;185.33;185.33;;;;;;;;5094095;28;8794;-73
2022/01/29 12:19:41;;;;;;;;;185.17;183.67;;;;;;;;5080490;28;8792;-72
2022/01/29 12:22:15;;;;;;;;;169.40;169.20;;;;;;;;5093795;28;8790;-73
2022/01/29 12:25:02;;;;;;;;;176.20;175.60;;;;;;;;5093871;28;8822;-73
2022/01/29 12:27:44;;;;;;;;;194.50;194.50;;;;;;;;5091202;28;8766;-72
2022/01/29 12:30:11;;;;;;;;;205.50;204.75;;;;;;;;5092934;28;8768;-72
2022/01/29 12:32:37;;;;;;;;;206.17;205.67;;;;;;;;5095377;28;8750;-72
2022/01/29 12:35:05;;;;;;;;;202.50;202.50;;;;;;;;5093268;28;9605;-73
2022/01/29 12:37:31;;;;;;;;;195.17;194.00;;;;;;;;5094870;28;9355;-72
2022/01/29 12:40:23;;;;;;;;;196.40;195.80;;;;;;;;5095001;28;8856;-72
2022/01/29 12:42:59;;;;;;;;;191.20;191.20;;;;;;;;5085012;28;8827;-72
2022/01/29 12:45:31;;;;;;;;;190.83;190.83;;;;;;;;5085677;28;8801;-72
2022/01/29 12:48:07;;;;;;;;;182.83;182.83;;;;;;;;5094920;28;8794;-72
2022/01/29 12:50:32;;;;;;;;;191.50;190.33;;;;;;;;5093322;28;9662;-71
2022/01/29 12:53:11;;;;;;;;;181.75;180.50;;;;;;;;5094787;28;8854;-72
2022/01/29 12:55:36;;;;;;;;;184.00;184.00;;;;;;;;5094751;28;10043;-72
2022/01/29 12:58:02;;;;;;;;;169.20;168.00;;;;;;;;5094632;28;9605;-72
2022/01/29 13:00:28;;;;;;;;;178.50;178.50;;;;;;;;5094635;28;8813;-72
2022/01/29 13:03:01;;;;;;;;;178.50;174.00;;;;;;;;5093383;28;9637;-72
2022/01/29 13:05:27;;;;;;;;;171.50;169.33;;;;;;;;5089856;28;8797;-72
2022/01/29 13:07:52;;;;;;;;;161.20;160.80;;;;;;;;5093190;28;8809;-71
2022/01/29 13:10:18;;;;;;;;;175.20;175.20;;;;;;;;5092993;28;8883;-71
2022/01/29 13:12:44;;;;;;;;;169.00;168.80;;;;;;;;5092981;28;8906;-71
2022/01/29 13:15:10;;;;;;;;;165.33;164.67;;;;;;;;5093141;28;8814;-71
2022/01/29 13:17:36;;;;;;;;;169.60;168.80;;;;;;;;5093307;28;8810;-71
2022/01/29 13:20:02;;;;;;;;;172.67;172.67;;;;;;;;5091942;28;8910;-71
2022/01/29 13:22:28;;;;;;;;;158.60;158.60;;;;;;;;5100652;28;8801;-71
2022/01/29 13:25:00;;;;;;;;;176.83;176.83;;;;;;;;5094064;28;8871;-72
2022/01/29 13:27:29;;;;;;;;;183.00;182.33;;;;;;;;5090172;28;8853;-71
2022/01/29 13:29:59;;;;;;;;;186.50;185.00;;;;;;;;5090253;28;8810;-71
2022/01/29 13:32:28;;;;;;;;;176.67;176.67;;;;;;;;5092962;28;9753;-71
2022/01/29 13:34:53;;;;;;;;;182.00;182.00;;;;;;;;5094048;28;8802;-72
2022/01/29 13:37:45;;;;;;;;;189.20;189.20;;;;;;;;5094264;28;8821;-72
2022/01/29 13:40:17;;;;;;;;;186.80;186.80;;;;;;;;5090289;28;8814;-72
2022/01/29 13:42:53;;;;;;;;;190.50;190.50;;;;;;;;5089179;28;8926;-71
2022/01/29 13:45:22;;;;;;;;;180.80;180.40;;;;;;;;5089536;28;8754;-70
2022/01/29 13:48:02;;;;;;;;;189.25;189.25;;;;;;;;5092754;28;8883;-71
2022/01/29 13:50:46;;;;;;;;;173.67;173.67;;;;;;;;5093651;28;8824;-71
2022/01/29 13:53:14;;;;;;;;;174.33;174.33;;;;;;;;5092623;28;9055;-71
2022/01/29 13:55:56;;;;;;;;;179.83;179.83;;;;;;;;5092736;28;8832;-72
2022/01/29 13:58:22;;;;;;;;;195.20;195.20;;;;;;;;5094055;28;8782;-72
2022/01/29 14:00:57;;;;;;;;;175.40;175.40;;;;;;;;5094043;28;8806;-71
2022/01/29 14:03:41;;;;;;;;;174.17;174.17;;;;;;;;5097736;28;8781;-72
2022/01/29 14:06:24;;;;;;;;;182.17;182.17;;;;;;;;5097485;28;9729;-72
2022/01/29 14:09:08;;;;;;;;;197.00;197.00;;;;;;;;5093312;28;8770;-73
2022/01/29 14:12:13;;;;;;;;;192.25;192.25;;;;;;;;5097481;28;8806;-72
2022/01/29 14:14:42;;;;;;;;;159.60;159.60;;;;;;;;5054676;28;11064;-73
2022/01/29 14:17:12;;;;;;;;;94.50;89.50;;;;;;;;5038248;28;11444;-71
2022/01/29 14:19:38;;;;;;;;;79.80;74.00;;;;;;;;5075201;28;8908;-73
2022/01/29 14:22:04;;;;;;;;;67.75;63.50;;;;;;;;5103387;28;11583;-72
2022/01/29 14:24:32;;;;;;;;;73.50;65.50;;;;;;;;5097437;28;8794;-72